sensor_id;sensor_type;location;lat;lon;timestamp;temperature;humidity
34095;DHT22;20372;47.080;15.410;2022-11-25T00:01:07;1.90;99.90
34095;DHT22;20372;47.080;15.410;2022-11-25T00:03:33;1.90;99.90
34095;DHT22;20372;47.080;15.410;2022-11-25T00:08:34;1.80;99.90
34095;DHT22;20372;47.080;15.410;2022-11-25T00:11:00;1.80;99.90
34095;DHT22;20372;47.080;15.410;2022-11-25T00:13:26;1.80;99.90
34095;DHT22;20372;47.080;15.410;2022-11-25T00:15:51;1.70;99.90
34095;DHT22;20372;47.080;15.410;2022-11-25T00:18:17;1.70;99.90
34095;DHT22;20372;47.080;15.410;2022-11-25T00:20:42;1.70;99.90
34095;DHT22;20372;47.080;15.410;2022-11-25T00:23:08;1.70;99.90
34095;DHT22;20372;47.080;15.410;2022-11-25T00:25:34;1.60;99.90
34095;DHT22;20372;47.080;15.410;2022-11-25T00:27:59;1.60;99.90
34095;DHT22;20372;47.080;15.410;2022-11-25T00:30:25;1.70;99.90
34095;DHT22;20372;47.080;15.410;2022-11-25T00:32:51;1.70;99.90
34095;DHT22;20372;47.080;15.410;2022-11-25T00:35:17;1.70;99.90
34095;DHT22;20372;47.080;15.410;2022-11-25T00:37:43;1.60;99.90
34095;DHT22;20372;47.080;15.410;2022-11-25T00:40:08;1.60;99.90
34095;DHT22;20372;47.080;15.410;2022-11-25T00:42:34;1.60;99.90
34095;DHT22;20372;47.080;15.410;2022-11-25T00:45:18;1.60;99.90
34095;DHT22;20372;47.080;15.410;2022-11-25T00:47:44;1.50;99.90
34095;DHT22;20372;47.080;15.410;2022-11-25T00:50:09;1.60;99.90
34095;DHT22;20372;47.080;15.410;2022-11-25T00:52:35;1.60;99.90
34095;DHT22;20372;47.080;15.410;2022-11-25T00:55:01;1.60;99.90
34095;DHT22;20372;47.080;15.410;2022-11-25T00:57:28;1.70;99.90
34095;DHT22;20372;47.080;15.410;2022-11-25T00:59:53;1.70;99.90
34095;DHT22;20372;47.080;15.410;2022-11-25T01:02:19;1.70;99.90
34095;DHT22;20372;47.080;15.410;2022-11-25T01:04:45;1.60;99.90
34095;DHT22;20372;47.080;15.410;2022-11-25T01:07:11;1.60;99.90
34095;DHT22;20372;47.080;15.410;2022-11-25T01:09:37;1.40;99.90
34095;DHT22;20372;47.080;15.410;2022-11-25T01:12:02;1.40;99.90
34095;DHT22;20372;47.080;15.410;2022-11-25T01:14:28;1.40;99.90
34095;DHT22;20372;47.080;15.410;2022-11-25T01:16:54;1.50;99.90
34095;DHT22;20372;47.080;15.410;2022-11-25T01:19:19;1.50;99.90
34095;DHT22;20372;47.080;15.410;2022-11-25T01:21:45;1.60;99.90
34095;DHT22;20372;47.080;15.410;2022-11-25T01:24:12;1.60;99.90
34095;DHT22;20372;47.080;15.410;2022-11-25T01:26:38;1.50;99.90
34095;DHT22;20372;47.080;15.410;2022-11-25T01:29:05;1.50;99.90
34095;DHT22;20372;47.080;15.410;2022-11-25T01:31:32;1.50;99.90
34095;DHT22;20372;47.080;15.410;2022-11-25T01:33:59;1.40;99.90
34095;DHT22;20372;47.080;15.410;2022-11-25T01:36:25;1.40;99.90
34095;DHT22;20372;47.080;15.410;2022-11-25T01:38:52;1.40;99.90
34095;DHT22;20372;47.080;15.410;2022-11-25T01:41:18;1.50;99.90
34095;DHT22;20372;47.080;15.410;2022-11-25T01:44:03;1.60;99.90
34095;DHT22;20372;47.080;15.410;2022-11-25T01:46:30;1.60;99.90
34095;DHT22;20372;47.080;15.410;2022-11-25T01:49:02;1.50;99.90
34095;DHT22;20372;47.080;15.410;2022-11-25T01:54:19;1.50;99.90
34095;DHT22;20372;47.080;15.410;2022-11-25T01:56:59;1.60;99.90
34095;DHT22;20372;47.080;15.410;2022-11-25T01:59:25;1.60;99.90
34095;DHT22;20372;47.080;15.410;2022-11-25T02:01:51;1.50;99.90
34095;DHT22;20372;47.080;15.410;2022-11-25T02:04:16;1.40;99.90
34095;DHT22;20372;47.080;15.410;2022-11-25T02:06:53;0.30;99.90
34095;DHT22;20372;47.080;15.410;2022-11-25T02:09:21;1.40;99.90
34095;DHT22;20372;47.080;15.410;2022-11-25T02:11:47;1.40;99.90
34095;DHT22;20372;47.080;15.410;2022-11-25T02:14:13;1.40;99.90
34095;DHT22;20372;47.080;15.410;2022-11-25T02:16:40;1.40;99.90
34095;DHT22;20372;47.080;15.410;2022-11-25T02:19:06;1.20;99.90
34095;DHT22;20372;47.080;15.410;2022-11-25T02:21:39;1.30;99.90
34095;DHT22;20372;47.080;15.410;2022-11-25T02:26:34;1.40;99.90
34095;DHT22;20372;47.080;15.410;2022-11-25T02:28:59;1.60;99.90
34095;DHT22;20372;47.080;15.410;2022-11-25T02:31:25;1.60;99.90
34095;DHT22;20372;47.080;15.410;2022-11-25T02:33:51;1.70;99.90
34095;DHT22;20372;47.080;15.410;2022-11-25T02:36:17;1.60;99.90
34095;DHT22;20372;47.080;15.410;2022-11-25T02:38:45;1.50;99.90
34095;DHT22;20372;47.080;15.410;2022-11-25T02:43:38;1.40;99.90
34095;DHT22;20372;47.080;15.410;2022-11-25T02:48:30;1.50;99.90
34095;DHT22;20372;47.080;15.410;2022-11-25T02:50:56;1.40;99.90
34095;DHT22;20372;47.080;15.410;2022-11-25T02:53:21;1.40;99.90
34095;DHT22;20372;47.080;15.410;2022-11-25T02:55:47;1.40;99.90
34095;DHT22;20372;47.080;15.410;2022-11-25T02:58:13;1.40;99.90
34095;DHT22;20372;47.080;15.410;2022-11-25T03:00:39;1.40;99.90
34095;DHT22;20372;47.080;15.410;2022-11-25T03:03:04;1.30;99.90
34095;DHT22;20372;47.080;15.410;2022-11-25T03:05:30;1.40;99.90
34095;DHT22;20372;47.080;15.410;2022-11-25T03:07:56;1.40;99.90
34095;DHT22;20372;47.080;15.410;2022-11-25T03:10:22;1.30;99.90
34095;DHT22;20372;47.080;15.410;2022-11-25T03:12:48;1.30;99.90
34095;DHT22;20372;47.080;15.410;2022-11-25T03:15:14;1.40;99.90
34095;DHT22;20372;47.080;15.410;2022-11-25T03:17:39;1.30;99.90
34095;DHT22;20372;47.080;15.410;2022-11-25T03:20:05;1.40;99.90
34095;DHT22;20372;47.080;15.410;2022-11-25T03:22:31;1.40;99.90
34095;DHT22;20372;47.080;15.410;2022-11-25T03:24:57;1.40;99.90
34095;DHT22;20372;47.080;15.410;2022-11-25T03:27:22;1.40;99.90
34095;DHT22;20372;47.080;15.410;2022-11-25T03:29:48;1.40;99.90
34095;DHT22;20372;47.080;15.410;2022-11-25T03:32:14;1.40;99.90
34095;DHT22;20372;47.080;15.410;2022-11-25T03:34:40;1.40;99.90
34095;DHT22;20372;47.080;15.410;2022-11-25T03:37:05;1.40;99.90
34095;DHT22;20372;47.080;15.410;2022-11-25T03:39:31;1.40;99.90
34095;DHT22;20372;47.080;15.410;2022-11-25T03:41:57;1.20;99.90
34095;DHT22;20372;47.080;15.410;2022-11-25T03:44:22;1.30;99.90
34095;DHT22;20372;47.080;15.410;2022-11-25T03:46:48;1.10;99.90
34095;DHT22;20372;47.080;15.410;2022-11-25T03:49:13;1.10;99.90
34095;DHT22;20372;47.080;15.410;2022-11-25T03:51:39;1.10;99.90
34095;DHT22;20372;47.080;15.410;2022-11-25T03:54:04;1.10;99.90
34095;DHT22;20372;47.080;15.410;2022-11-25T03:56:30;1.10;99.90
34095;DHT22;20372;47.080;15.410;2022-11-25T03:58:56;0.90;99.90
34095;DHT22;20372;47.080;15.410;2022-11-25T04:01:21;0.80;99.90
34095;DHT22;20372;47.080;15.410;2022-11-25T04:03:47;0.90;99.90
34095;DHT22;20372;47.080;15.410;2022-11-25T04:06:12;1.00;99.90
34095;DHT22;20372;47.080;15.410;2022-11-25T04:08:38;1.30;99.90
34095;DHT22;20372;47.080;15.410;2022-11-25T04:11:03;1.50;99.90
34095;DHT22;20372;47.080;15.410;2022-11-25T04:13:29;1.40;99.90
34095;DHT22;20372;47.080;15.410;2022-11-25T04:15:55;1.40;99.90
34095;DHT22;20372;47.080;15.410;2022-11-25T04:18:20;1.30;99.90
34095;DHT22;20372;47.080;15.410;2022-11-25T04:20:46;1.30;99.90
34095;DHT22;20372;47.080;15.410;2022-11-25T04:23:12;1.20;99.90
34095;DHT22;20372;47.080;15.410;2022-11-25T04:25:38;1.10;99.90
34095;DHT22;20372;47.080;15.410;2022-11-25T04:28:04;1.00;99.90
34095;DHT22;20372;47.080;15.410;2022-11-25T04:30:30;1.00;99.90
34095;DHT22;20372;47.080;15.410;2022-11-25T04:32:56;1.10;99.90
34095;DHT22;20372;47.080;15.410;2022-11-25T04:35:22;1.00;99.90
34095;DHT22;20372;47.080;15.410;2022-11-25T04:37:47;1.00;99.90
34095;DHT22;20372;47.080;15.410;2022-11-25T04:40:13;1.00;99.90
34095;DHT22;20372;47.080;15.410;2022-11-25T04:42:39;1.00;99.90
34095;DHT22;20372;47.080;15.410;2022-11-25T04:45:09;1.10;99.90
34095;DHT22;20372;47.080;15.410;2022-11-25T04:47:35;1.10;99.90
34095;DHT22;20372;47.080;15.410;2022-11-25T04:50:01;1.10;99.90
34095;DHT22;20372;47.080;15.410;2022-11-25T04:52:26;0.90;99.90
34095;DHT22;20372;47.080;15.410;2022-11-25T04:54:52;1.00;99.90
34095;DHT22;20372;47.080;15.410;2022-11-25T04:57:18;1.10;99.90
34095;DHT22;20372;47.080;15.410;2022-11-25T04:59:43;1.00;99.90
34095;DHT22;20372;47.080;15.410;2022-11-25T05:02:11;1.00;99.90
34095;DHT22;20372;47.080;15.410;2022-11-25T05:04:38;1.10;99.90
34095;DHT22;20372;47.080;15.410;2022-11-25T05:07:03;1.10;99.90
34095;DHT22;20372;47.080;15.410;2022-11-25T05:09:29;1.10;99.90
34095;DHT22;20372;47.080;15.410;2022-11-25T05:11:54;1.10;99.90
34095;DHT22;20372;47.080;15.410;2022-11-25T05:14:20;1.20;99.90
34095;DHT22;20372;47.080;15.410;2022-11-25T05:16:46;1.00;99.90
34095;DHT22;20372;47.080;15.410;2022-11-25T05:19:12;0.90;99.90
34095;DHT22;20372;47.080;15.410;2022-11-25T05:21:38;0.80;99.90
34095;DHT22;20372;47.080;15.410;2022-11-25T05:24:03;0.70;99.90
34095;DHT22;20372;47.080;15.410;2022-11-25T05:26:29;0.70;99.90
34095;DHT22;20372;47.080;15.410;2022-11-25T05:28:54;0.80;99.90
34095;DHT22;20372;47.080;15.410;2022-11-25T05:31:20;0.80;99.90
34095;DHT22;20372;47.080;15.410;2022-11-25T05:33:45;0.90;99.90
34095;DHT22;20372;47.080;15.410;2022-11-25T05:36:11;0.80;99.90
34095;DHT22;20372;47.080;15.410;2022-11-25T05:38:36;0.80;99.90
34095;DHT22;20372;47.080;15.410;2022-11-25T05:41:03;0.80;99.90
34095;DHT22;20372;47.080;15.410;2022-11-25T05:43:30;0.70;99.90
34095;DHT22;20372;47.080;15.410;2022-11-25T05:45:56;0.60;99.90
34095;DHT22;20372;47.080;15.410;2022-11-25T05:48:21;0.50;99.90
34095;DHT22;20372;47.080;15.410;2022-11-25T05:50:47;0.40;99.90
34095;DHT22;20372;47.080;15.410;2022-11-25T05:53:12;0.60;99.90
34095;DHT22;20372;47.080;15.410;2022-11-25T05:55:48;0.50;99.90
34095;DHT22;20372;47.080;15.410;2022-11-25T05:58:17;0.50;99.90
34095;DHT22;20372;47.080;15.410;2022-11-25T06:00:43;0.50;99.90
34095;DHT22;20372;47.080;15.410;2022-11-25T06:03:08;0.30;99.90
34095;DHT22;20372;47.080;15.410;2022-11-25T06:05:34;0.40;99.90
34095;DHT22;20372;47.080;15.410;2022-11-25T06:07:59;0.40;99.90
34095;DHT22;20372;47.080;15.410;2022-11-25T06:10:25;0.60;99.90
34095;DHT22;20372;47.080;15.410;2022-11-25T06:12:51;0.40;99.90
34095;DHT22;20372;47.080;15.410;2022-11-25T06:15:17;0.80;99.90
34095;DHT22;20372;47.080;15.410;2022-11-25T06:17:43;0.70;99.90
34095;DHT22;20372;47.080;15.410;2022-11-25T06:20:09;0.80;99.90
34095;DHT22;20372;47.080;15.410;2022-11-25T06:22:35;0.90;99.90
34095;DHT22;20372;47.080;15.410;2022-11-25T06:25:00;0.80;99.90
34095;DHT22;20372;47.080;15.410;2022-11-25T06:27:26;0.70;99.90
34095;DHT22;20372;47.080;15.410;2022-11-25T06:29:51;0.70;99.90
34095;DHT22;20372;47.080;15.410;2022-11-25T06:32:17;0.80;99.90
34095;DHT22;20372;47.080;15.410;2022-11-25T06:34:43;0.90;99.90
34095;DHT22;20372;47.080;15.410;2022-11-25T06:37:08;0.80;99.90
34095;DHT22;20372;47.080;15.410;2022-11-25T06:39:34;0.90;99.90
34095;DHT22;20372;47.080;15.410;2022-11-25T06:41:59;1.00;99.90
34095;DHT22;20372;47.080;15.410;2022-11-25T06:44:25;1.20;99.90
34095;DHT22;20372;47.080;15.410;2022-11-25T06:46:50;1.30;99.90
34095;DHT22;20372;47.080;15.410;2022-11-25T06:49:16;1.20;99.90
34095;DHT22;20372;47.080;15.410;2022-11-25T06:51:42;1.20;99.90
34095;DHT22;20372;47.080;15.410;2022-11-25T06:54:07;1.30;99.90
34095;DHT22;20372;47.080;15.410;2022-11-25T06:56:34;1.30;99.90
34095;DHT22;20372;47.080;15.410;2022-11-25T06:59:00;1.30;99.90
34095;DHT22;20372;47.080;15.410;2022-11-25T07:01:26;1.30;99.90
34095;DHT22;20372;47.080;15.410;2022-11-25T07:03:53;1.40;99.90
34095;DHT22;20372;47.080;15.410;2022-11-25T07:06:19;1.50;99.90
34095;DHT22;20372;47.080;15.410;2022-11-25T07:08:46;1.50;99.90
34095;DHT22;20372;47.080;15.410;2022-11-25T07:11:15;1.60;99.90
34095;DHT22;20372;47.080;15.410;2022-11-25T07:13:42;1.70;99.90
34095;DHT22;20372;47.080;15.410;2022-11-25T07:16:07;1.70;99.90
34095;DHT22;20372;47.080;15.410;2022-11-25T07:18:34;1.70;99.90
34095;DHT22;20372;47.080;15.410;2022-11-25T07:21:01;1.70;99.90
34095;DHT22;20372;47.080;15.410;2022-11-25T07:23:27;1.80;99.90
34095;DHT22;20372;47.080;15.410;2022-11-25T07:25:52;1.90;99.90
34095;DHT22;20372;47.080;15.410;2022-11-25T07:28:18;2.00;99.90
34095;DHT22;20372;47.080;15.410;2022-11-25T07:30:43;1.90;99.90
34095;DHT22;20372;47.080;15.410;2022-11-25T07:33:09;1.90;99.90
34095;DHT22;20372;47.080;15.410;2022-11-25T07:35:35;2.20;99.90
34095;DHT22;20372;47.080;15.410;2022-11-25T07:38:00;2.50;99.90
34095;DHT22;20372;47.080;15.410;2022-11-25T07:40:26;2.70;99.90
34095;DHT22;20372;47.080;15.410;2022-11-25T07:42:51;2.80;99.90
34095;DHT22;20372;47.080;15.410;2022-11-25T07:45:17;3.00;99.90
34095;DHT22;20372;47.080;15.410;2022-11-25T07:47:42;3.60;99.90
34095;DHT22;20372;47.080;15.410;2022-11-25T07:50:08;4.90;99.90
34095;DHT22;20372;47.080;15.410;2022-11-25T07:52:35;6.10;99.90
34095;DHT22;20372;47.080;15.410;2022-11-25T07:55:01;5.90;99.90
34095;DHT22;20372;47.080;15.410;2022-11-25T07:57:27;6.10;99.90
34095;DHT22;20372;47.080;15.410;2022-11-25T07:59:53;6.70;99.90
34095;DHT22;20372;47.080;15.410;2022-11-25T08:02:18;7.70;99.90
34095;DHT22;20372;47.080;15.410;2022-11-25T08:04:44;8.30;99.90
34095;DHT22;20372;47.080;15.410;2022-11-25T08:07:09;8.80;99.90
34095;DHT22;20372;47.080;15.410;2022-11-25T08:09:35;9.10;99.90
34095;DHT22;20372;47.080;15.410;2022-11-25T08:12:01;8.80;99.90
34095;DHT22;20372;47.080;15.410;2022-11-25T08:14:26;7.80;99.90
34095;DHT22;20372;47.080;15.410;2022-11-25T08:16:52;6.90;99.90
34095;DHT22;20372;47.080;15.410;2022-11-25T08:19:18;6.60;99.90
34095;DHT22;20372;47.080;15.410;2022-11-25T08:21:44;6.60;99.90
34095;DHT22;20372;47.080;15.410;2022-11-25T08:24:13;6.70;99.90
34095;DHT22;20372;47.080;15.410;2022-11-25T08:26:39;7.30;99.90
34095;DHT22;20372;47.080;15.410;2022-11-25T08:29:05;7.50;99.90
34095;DHT22;20372;47.080;15.410;2022-11-25T08:31:32;7.60;99.90
34095;DHT22;20372;47.080;15.410;2022-11-25T08:33:58;7.90;99.90
34095;DHT22;20372;47.080;15.410;2022-11-25T08:36:24;7.30;99.90
34095;DHT22;20372;47.080;15.410;2022-11-25T08:38:51;7.00;99.90
34095;DHT22;20372;47.080;15.410;2022-11-25T08:41:22;7.10;99.90
34095;DHT22;20372;47.080;15.410;2022-11-25T08:43:49;7.10;99.90
34095;DHT22;20372;47.080;15.410;2022-11-25T08:46:16;7.20;99.90
34095;DHT22;20372;47.080;15.410;2022-11-25T08:48:42;7.10;99.90
34095;DHT22;20372;47.080;15.410;2022-11-25T08:51:08;7.10;99.90
34095;DHT22;20372;47.080;15.410;2022-11-25T08:53:35;7.20;99.90
34095;DHT22;20372;47.080;15.410;2022-11-25T08:56:00;7.20;99.90
34095;DHT22;20372;47.080;15.410;2022-11-25T08:58:26;7.30;99.90
34095;DHT22;20372;47.080;15.410;2022-11-25T09:00:51;7.30;99.90
34095;DHT22;20372;47.080;15.410;2022-11-25T09:03:17;7.20;99.90
34095;DHT22;20372;47.080;15.410;2022-11-25T09:05:42;7.20;99.90
34095;DHT22;20372;47.080;15.410;2022-11-25T09:08:09;7.40;99.90
34095;DHT22;20372;47.080;15.410;2022-11-25T09:10:35;7.40;99.90
34095;DHT22;20372;47.080;15.410;2022-11-25T09:13:01;7.40;99.90
34095;DHT22;20372;47.080;15.410;2022-11-25T09:15:27;7.20;99.90
34095;DHT22;20372;47.080;15.410;2022-11-25T09:18:02;7.20;99.90
34095;DHT22;20372;47.080;15.410;2022-11-25T09:20:28;7.10;99.90
34095;DHT22;20372;47.080;15.410;2022-11-25T09:22:54;7.30;99.90
34095;DHT22;20372;47.080;15.410;2022-11-25T09:25:20;7.20;99.90
34095;DHT22;20372;47.080;15.410;2022-11-25T09:27:46;7.20;99.90
34095;DHT22;20372;47.080;15.410;2022-11-25T09:30:12;7.20;99.90
34095;DHT22;20372;47.080;15.410;2022-11-25T09:32:38;7.30;99.90
34095;DHT22;20372;47.080;15.410;2022-11-25T09:35:04;7.30;99.90
34095;DHT22;20372;47.080;15.410;2022-11-25T09:37:29;7.30;99.90
34095;DHT22;20372;47.080;15.410;2022-11-25T09:39:55;7.30;99.90
34095;DHT22;20372;47.080;15.410;2022-11-25T09:55:41;7.30;99.90
34095;DHT22;20372;47.080;15.410;2022-11-25T10:00:41;7.40;99.90
34095;DHT22;20372;47.080;15.410;2022-11-25T10:08:38;7.90;99.90
34095;DHT22;20372;47.080;15.410;2022-11-25T10:18:54;8.40;99.90
34095;DHT22;20372;47.080;15.410;2022-11-25T10:21:22;8.50;99.90
34095;DHT22;20372;47.080;15.410;2022-11-25T10:23:47;8.50;99.90
34095;DHT22;20372;47.080;15.410;2022-11-25T10:26:14;8.80;99.90
34095;DHT22;20372;47.080;15.410;2022-11-25T10:28:42;8.90;99.90
34095;DHT22;20372;47.080;15.410;2022-11-25T10:38:40;9.20;99.90
34095;DHT22;20372;47.080;15.410;2022-11-25T10:41:18;9.20;99.90
34095;DHT22;20372;47.080;15.410;2022-11-25T10:43:45;9.20;99.90
34095;DHT22;20372;47.080;15.410;2022-11-25T10:46:34;9.60;99.90
34095;DHT22;20372;47.080;15.410;2022-11-25T10:49:00;9.80;99.90
34095;DHT22;20372;47.080;15.410;2022-11-25T10:51:32;9.80;99.90
34095;DHT22;20372;47.080;15.410;2022-11-25T10:54:13;9.90;99.90
34095;DHT22;20372;47.080;15.410;2022-11-25T10:56:52;10.10;99.90
34095;DHT22;20372;47.080;15.410;2022-11-25T10:59:39;10.20;99.90
34095;DHT22;20372;47.080;15.410;2022-11-25T11:04:32;10.20;99.90
34095;DHT22;20372;47.080;15.410;2022-11-25T11:07:05;10.10;99.90
34095;DHT22;20372;47.080;15.410;2022-11-25T11:09:35;10.00;99.90
34095;DHT22;20372;47.080;15.410;2022-11-25T11:12:23;9.90;99.90
34095;DHT22;20372;47.080;15.410;2022-11-25T11:14:47;9.70;99.90
34095;DHT22;20372;47.080;15.410;2022-11-25T11:17:46;10.20;99.90
34095;DHT22;20372;47.080;15.410;2022-11-25T11:22:33;10.60;99.90
34095;DHT22;20372;47.080;15.410;2022-11-25T11:27:54;10.50;99.10
34095;DHT22;20372;47.080;15.410;2022-11-25T11:30:21;10.30;98.90
34095;DHT22;20372;47.080;15.410;2022-11-25T11:32:56;10.20;99.90
34095;DHT22;20372;47.080;15.410;2022-11-25T11:35:24;10.00;99.90
34095;DHT22;20372;47.080;15.410;2022-11-25T11:37:52;10.00;99.90
34095;DHT22;20372;47.080;15.410;2022-11-25T11:40:34;10.30;99.90
34095;DHT22;20372;47.080;15.410;2022-11-25T11:50:38;10.60;99.20
34095;DHT22;20372;47.080;15.410;2022-11-25T11:53:08;10.50;99.70
34095;DHT22;20372;47.080;15.410;2022-11-25T11:58:25;10.40;99.90
34095;DHT22;20372;47.080;15.410;2022-11-25T12:03:30;11.20;99.90
34095;DHT22;20372;47.080;15.410;2022-11-25T12:05:59;11.10;98.80
34095;DHT22;20372;47.080;15.410;2022-11-25T12:08:44;11.00;98.60
34095;DHT22;20372;47.080;15.410;2022-11-25T12:11:14;10.70;98.70
34095;DHT22;20372;47.080;15.410;2022-11-25T12:16:15;10.50;99.90
34095;DHT22;20372;47.080;15.410;2022-11-25T12:21:12;10.20;99.50
34095;DHT22;20372;47.080;15.410;2022-11-25T12:26:12;10.00;99.80
34095;DHT22;20372;47.080;15.410;2022-11-25T12:28:42;10.00;99.30
34095;DHT22;20372;47.080;15.410;2022-11-25T12:38:55;10.40;99.90
34095;DHT22;20372;47.080;15.410;2022-11-25T12:44:13;10.30;99.90
34095;DHT22;20372;47.080;15.410;2022-11-25T12:46:45;10.40;99.90
34095;DHT22;20372;47.080;15.410;2022-11-25T13:01:44;10.30;98.70
34095;DHT22;20372;47.080;15.410;2022-11-25T13:04:22;10.50;98.20
34095;DHT22;20372;47.080;15.410;2022-11-25T13:17:56;10.50;97.40
34095;DHT22;20372;47.080;15.410;2022-11-25T13:25:29;10.60;98.00
34095;DHT22;20372;47.080;15.410;2022-11-25T13:27:56;10.40;98.60
34095;DHT22;20372;47.080;15.410;2022-11-25T13:30:43;10.20;99.90
34095;DHT22;20372;47.080;15.410;2022-11-25T13:35:34;10.20;98.00
34095;DHT22;20372;47.080;15.410;2022-11-25T13:38:00;10.20;98.90
34095;DHT22;20372;47.080;15.410;2022-11-25T13:42:52;10.30;98.30
34095;DHT22;20372;47.080;15.410;2022-11-25T13:45:40;10.30;98.80
34095;DHT22;20372;47.080;15.410;2022-11-25T13:48:20;10.30;98.80
34095;DHT22;20372;47.080;15.410;2022-11-25T13:50:47;10.20;98.30
34095;DHT22;20372;47.080;15.410;2022-11-25T13:53:23;9.90;98.70
34095;DHT22;20372;47.080;15.410;2022-11-25T13:55:50;9.60;98.50
34095;DHT22;20372;47.080;15.410;2022-11-25T13:58:25;9.40;99.10
34095;DHT22;20372;47.080;15.410;2022-11-25T14:26:50;9.70;98.30
34095;DHT22;20372;47.080;15.410;2022-11-25T14:29:19;9.60;98.50
34095;DHT22;20372;47.080;15.410;2022-11-25T14:31:53;9.50;98.40
34095;DHT22;20372;47.080;15.410;2022-11-25T14:39:45;9.00;99.90
34095;DHT22;20372;47.080;15.410;2022-11-25T14:42:16;8.80;99.90
34095;DHT22;20372;47.080;15.410;2022-11-25T14:47:08;8.30;99.90
34095;DHT22;20372;47.080;15.410;2022-11-25T14:49:44;8.00;99.90
34095;DHT22;20372;47.080;15.410;2022-11-25T14:52:14;7.80;99.90
34095;DHT22;20372;47.080;15.410;2022-11-25T14:54:40;7.80;99.90
34095;DHT22;20372;47.080;15.410;2022-11-25T14:57:06;7.70;99.90
34095;DHT22;20372;47.080;15.410;2022-11-25T14:59:32;7.60;99.90
34095;DHT22;20372;47.080;15.410;2022-11-25T15:01:58;7.50;99.90
34095;DHT22;20372;47.080;15.410;2022-11-25T15:04:24;7.40;99.90
34095;DHT22;20372;47.080;15.410;2022-11-25T15:06:54;7.30;99.90
34095;DHT22;20372;47.080;15.410;2022-11-25T15:09:22;7.30;99.90
34095;DHT22;20372;47.080;15.410;2022-11-25T15:12:09;7.10;99.90
34095;DHT22;20372;47.080;15.410;2022-11-25T15:14:36;7.10;99.90
34095;DHT22;20372;47.080;15.410;2022-11-25T15:17:06;7.00;99.90
34095;DHT22;20372;47.080;15.410;2022-11-25T15:19:32;6.90;99.90
34095;DHT22;20372;47.080;15.410;2022-11-25T15:21:59;6.80;99.90
34095;DHT22;20372;47.080;15.410;2022-11-25T15:24:27;6.60;99.90
34095;DHT22;20372;47.080;15.410;2022-11-25T15:26:54;6.60;99.90
34095;DHT22;20372;47.080;15.410;2022-11-25T15:29:20;6.50;99.90
34095;DHT22;20372;47.080;15.410;2022-11-25T15:31:47;6.40;99.90
34095;DHT22;20372;47.080;15.410;2022-11-25T15:34:13;5.80;99.90
34095;DHT22;20372;47.080;15.410;2022-11-25T15:36:40;5.40;99.90
34095;DHT22;20372;47.080;15.410;2022-11-25T15:39:39;5.70;99.90
34095;DHT22;20372;47.080;15.410;2022-11-25T15:45:02;5.90;99.90
34095;DHT22;20372;47.080;15.410;2022-11-25T15:47:30;5.90;99.90
34095;DHT22;20372;47.080;15.410;2022-11-25T15:52:54;5.80;99.90
34095;DHT22;20372;47.080;15.410;2022-11-25T15:55:30;5.60;99.90
34095;DHT22;20372;47.080;15.410;2022-11-25T15:57:57;5.50;99.90
34095;DHT22;20372;47.080;15.410;2022-11-25T16:00:25;5.50;99.90
34095;DHT22;20372;47.080;15.410;2022-11-25T16:02:52;5.50;99.90
34095;DHT22;20372;47.080;15.410;2022-11-25T16:05:25;5.40;99.90
34095;DHT22;20372;47.080;15.410;2022-11-25T16:15:40;5.50;99.90
34095;DHT22;20372;47.080;15.410;2022-11-25T16:18:09;5.50;99.90
34095;DHT22;20372;47.080;15.410;2022-11-25T16:20:35;4.60;99.90
34095;DHT22;20372;47.080;15.410;2022-11-25T16:23:05;5.50;99.90
34095;DHT22;20372;47.080;15.410;2022-11-25T16:25:31;5.50;99.90
34095;DHT22;20372;47.080;15.410;2022-11-25T16:27:57;5.50;99.90
34095;DHT22;20372;47.080;15.410;2022-11-25T16:30:25;5.50;99.90
34095;DHT22;20372;47.080;15.410;2022-11-25T16:32:52;5.40;99.90
34095;DHT22;20372;47.080;15.410;2022-11-25T16:35:18;5.40;99.90
34095;DHT22;20372;47.080;15.410;2022-11-25T16:37:49;5.40;99.90
34095;DHT22;20372;47.080;15.410;2022-11-25T16:40:15;5.40;99.90
34095;DHT22;20372;47.080;15.410;2022-11-25T16:42:43;5.40;99.90
34095;DHT22;20372;47.080;15.410;2022-11-25T16:45:17;5.40;99.90
34095;DHT22;20372;47.080;15.410;2022-11-25T16:47:43;5.30;99.90
34095;DHT22;20372;47.080;15.410;2022-11-25T16:50:12;5.30;99.90
34095;DHT22;20372;47.080;15.410;2022-11-25T16:52:38;5.20;99.90
34095;DHT22;20372;47.080;15.410;2022-11-25T16:55:04;5.10;99.90
34095;DHT22;20372;47.080;15.410;2022-11-25T16:57:31;5.10;99.90
34095;DHT22;20372;47.080;15.410;2022-11-25T16:59:58;5.10;99.90
34095;DHT22;20372;47.080;15.410;2022-11-25T17:02:28;5.10;99.90
34095;DHT22;20372;47.080;15.410;2022-11-25T17:04:54;5.10;99.90
34095;DHT22;20372;47.080;15.410;2022-11-25T17:07:20;5.10;99.90
34095;DHT22;20372;47.080;15.410;2022-11-25T17:09:47;5.10;99.90
34095;DHT22;20372;47.080;15.410;2022-11-25T17:12:26;5.10;99.90
34095;DHT22;20372;47.080;15.410;2022-11-25T17:14:52;5.10;99.90
34095;DHT22;20372;47.080;15.410;2022-11-25T17:17:21;5.10;99.90
34095;DHT22;20372;47.080;15.410;2022-11-25T17:19:47;5.10;99.90
34095;DHT22;20372;47.080;15.410;2022-11-25T17:22:17;5.10;99.90
34095;DHT22;20372;47.080;15.410;2022-11-25T17:24:43;5.10;99.90
34095;DHT22;20372;47.080;15.410;2022-11-25T17:27:09;5.10;99.90
34095;DHT22;20372;47.080;15.410;2022-11-25T17:29:40;5.10;99.90
34095;DHT22;20372;47.080;15.410;2022-11-25T17:32:10;5.20;99.90
34095;DHT22;20372;47.080;15.410;2022-11-25T17:34:37;5.20;99.90
34095;DHT22;20372;47.080;15.410;2022-11-25T17:37:03;5.20;99.90
34095;DHT22;20372;47.080;15.410;2022-11-25T17:39:28;5.10;99.90
34095;DHT22;20372;47.080;15.410;2022-11-25T17:41:54;5.10;99.90
34095;DHT22;20372;47.080;15.410;2022-11-25T17:44:26;5.10;99.90
34095;DHT22;20372;47.080;15.410;2022-11-25T17:46:52;5.20;99.90
34095;DHT22;20372;47.080;15.410;2022-11-25T17:49:18;5.10;99.90
34095;DHT22;20372;47.080;15.410;2022-11-25T17:51:44;5.20;99.90
34095;DHT22;20372;47.080;15.410;2022-11-25T17:54:10;5.10;99.90
34095;DHT22;20372;47.080;15.410;2022-11-25T17:56:36;5.20;99.90
34095;DHT22;20372;47.080;15.410;2022-11-25T17:59:04;5.10;99.90
34095;DHT22;20372;47.080;15.410;2022-11-25T18:01:30;5.20;99.90
34095;DHT22;20372;47.080;15.410;2022-11-25T18:03:56;5.20;99.90
34095;DHT22;20372;47.080;15.410;2022-11-25T18:06:21;5.20;99.90
34095;DHT22;20372;47.080;15.410;2022-11-25T18:08:47;5.30;99.90
34095;DHT22;20372;47.080;15.410;2022-11-25T18:11:17;5.20;99.90
34095;DHT22;20372;47.080;15.410;2022-11-25T18:13:43;5.20;99.90
34095;DHT22;20372;47.080;15.410;2022-11-25T18:16:10;5.30;99.90
34095;DHT22;20372;47.080;15.410;2022-11-25T18:18:36;5.40;99.90
34095;DHT22;20372;47.080;15.410;2022-11-25T18:21:02;5.30;99.90